sensor_id;sensor_type;location;lat;lon;timestamp;temperature;humidity
29403;DHT22;16382;59.942;30.472;2022-09-09T00:01:03;8.80;99.90
29403;DHT22;16382;59.942;30.472;2022-09-09T00:03:40;8.90;99.90
29403;DHT22;16382;59.942;30.472;2022-09-09T00:06:17;8.90;99.90
29403;DHT22;16382;59.942;30.472;2022-09-09T00:08:56;9.00;99.90
29403;DHT22;16382;59.942;30.472;2022-09-09T00:11:33;9.10;99.90
29403;DHT22;16382;59.942;30.472;2022-09-09T00:14:07;9.10;99.90
29403;DHT22;16382;59.942;30.472;2022-09-09T00:16:42;9.10;99.90
29403;DHT22;16382;59.942;30.472;2022-09-09T00:19:21;9.10;99.90
29403;DHT22;16382;59.942;30.472;2022-09-09T00:21:58;9.20;99.90
29403;DHT22;16382;59.942;30.472;2022-09-09T00:24:35;9.20;99.90
29403;DHT22;16382;59.942;30.472;2022-09-09T00:27:11;9.30;99.90
29403;DHT22;16382;59.942;30.472;2022-09-09T00:29:46;9.20;99.90
29403;DHT22;16382;59.942;30.472;2022-09-09T00:32:22;9.20;99.90
29403;DHT22;16382;59.942;30.472;2022-09-09T00:34:55;9.20;99.90
29403;DHT22;16382;59.942;30.472;2022-09-09T00:37:26;9.20;99.90
29403;DHT22;16382;59.942;30.472;2022-09-09T00:39:59;9.10;99.90
29403;DHT22;16382;59.942;30.472;2022-09-09T00:42:38;9.10;99.90
29403;DHT22;16382;59.942;30.472;2022-09-09T00:45:32;9.10;99.90
29403;DHT22;16382;59.942;30.472;2022-09-09T00:48:11;9.00;99.90
29403;DHT22;16382;59.942;30.472;2022-09-09T00:50:45;9.00;99.90
29403;DHT22;16382;59.942;30.472;2022-09-09T00:53:35;9.10;99.90
29403;DHT22;16382;59.942;30.472;2022-09-09T00:56:12;9.20;99.90
29403;DHT22;16382;59.942;30.472;2022-09-09T00:58:43;9.20;99.90
29403;DHT22;16382;59.942;30.472;2022-09-09T01:01:18;9.20;99.90
29403;DHT22;16382;59.942;30.472;2022-09-09T01:03:51;9.30;99.90
29403;DHT22;16382;59.942;30.472;2022-09-09T01:06:25;9.30;99.90
29403;DHT22;16382;59.942;30.472;2022-09-09T01:09:11;9.30;99.90
29403;DHT22;16382;59.942;30.472;2022-09-09T01:11:49;9.30;99.90
29403;DHT22;16382;59.942;30.472;2022-09-09T01:14:33;9.30;99.90
29403;DHT22;16382;59.942;30.472;2022-09-09T01:17:14;9.20;99.90
29403;DHT22;16382;59.942;30.472;2022-09-09T01:20:04;9.20;99.90
29403;DHT22;16382;59.942;30.472;2022-09-09T01:22:51;9.20;99.90
29403;DHT22;16382;59.942;30.472;2022-09-09T01:25:30;9.20;99.90
29403;DHT22;16382;59.942;30.472;2022-09-09T01:28:27;9.30;99.90
29403;DHT22;16382;59.942;30.472;2022-09-09T01:31:02;9.30;99.90
29403;DHT22;16382;59.942;30.472;2022-09-09T01:33:37;9.30;99.90
29403;DHT22;16382;59.942;30.472;2022-09-09T01:36:07;9.30;99.90
29403;DHT22;16382;59.942;30.472;2022-09-09T01:38:44;9.40;99.90
29403;DHT22;16382;59.942;30.472;2022-09-09T01:41:12;9.40;99.90
29403;DHT22;16382;59.942;30.472;2022-09-09T01:44:02;9.40;99.90
29403;DHT22;16382;59.942;30.472;2022-09-09T01:46:32;9.40;99.90
29403;DHT22;16382;59.942;30.472;2022-09-09T01:49:04;9.40;99.90
29403;DHT22;16382;59.942;30.472;2022-09-09T01:51:34;9.30;99.90
29403;DHT22;16382;59.942;30.472;2022-09-09T01:54:06;9.30;99.90
29403;DHT22;16382;59.942;30.472;2022-09-09T01:56:42;9.30;99.90
29403;DHT22;16382;59.942;30.472;2022-09-09T01:59:40;9.30;99.90
29403;DHT22;16382;59.942;30.472;2022-09-09T02:02:17;9.20;99.90
29403;DHT22;16382;59.942;30.472;2022-09-09T02:05:17;9.30;99.90
29403;DHT22;16382;59.942;30.472;2022-09-09T02:08:03;9.30;99.90
29403;DHT22;16382;59.942;30.472;2022-09-09T02:10:46;9.20;99.90
29403;DHT22;16382;59.942;30.472;2022-09-09T02:13:32;9.20;99.90
29403;DHT22;16382;59.942;30.472;2022-09-09T02:16:08;9.30;99.90
29403;DHT22;16382;59.942;30.472;2022-09-09T02:18:39;9.30;99.90
29403;DHT22;16382;59.942;30.472;2022-09-09T02:21:13;9.20;99.90
29403;DHT22;16382;59.942;30.472;2022-09-09T02:23:41;9.20;99.90
29403;DHT22;16382;59.942;30.472;2022-09-09T02:26:13;9.20;99.90
29403;DHT22;16382;59.942;30.472;2022-09-09T02:28:55;9.20;99.90
29403;DHT22;16382;59.942;30.472;2022-09-09T02:31:25;9.20;99.90
29403;DHT22;16382;59.942;30.472;2022-09-09T02:34:01;9.10;99.90
29403;DHT22;16382;59.942;30.472;2022-09-09T02:36:32;9.10;99.90
29403;DHT22;16382;59.942;30.472;2022-09-09T02:39:01;9.20;99.90
29403;DHT22;16382;59.942;30.472;2022-09-09T02:41:35;9.20;99.90
29403;DHT22;16382;59.942;30.472;2022-09-09T02:44:08;9.30;99.90
29403;DHT22;16382;59.942;30.472;2022-09-09T02:46:53;9.30;99.90
29403;DHT22;16382;59.942;30.472;2022-09-09T02:49:39;9.30;99.90
29403;DHT22;16382;59.942;30.472;2022-09-09T02:52:14;9.30;99.90
29403;DHT22;16382;59.942;30.472;2022-09-09T02:54:42;9.30;99.90
29403;DHT22;16382;59.942;30.472;2022-09-09T02:57:13;9.30;99.90
29403;DHT22;16382;59.942;30.472;2022-09-09T02:59:46;9.30;99.90
29403;DHT22;16382;59.942;30.472;2022-09-09T03:02:15;9.30;99.90
29403;DHT22;16382;59.942;30.472;2022-09-09T03:04:48;9.30;99.90
29403;DHT22;16382;59.942;30.472;2022-09-09T03:07:18;9.30;99.90
29403;DHT22;16382;59.942;30.472;2022-09-09T03:09:46;9.20;99.90
29403;DHT22;16382;59.942;30.472;2022-09-09T03:12:15;9.20;99.90
29403;DHT22;16382;59.942;30.472;2022-09-09T03:14:43;9.20;99.90
29403;DHT22;16382;59.942;30.472;2022-09-09T03:17:12;9.10;99.90
29403;DHT22;16382;59.942;30.472;2022-09-09T03:19:48;9.10;99.90
29403;DHT22;16382;59.942;30.472;2022-09-09T03:22:18;9.10;99.90
29403;DHT22;16382;59.942;30.472;2022-09-09T03:24:46;9.00;99.90
29403;DHT22;16382;59.942;30.472;2022-09-09T03:27:14;9.00;99.90
29403;DHT22;16382;59.942;30.472;2022-09-09T03:29:42;9.00;99.90
29403;DHT22;16382;59.942;30.472;2022-09-09T03:32:14;8.90;99.90
29403;DHT22;16382;59.942;30.472;2022-09-09T03:34:43;8.90;99.90
29403;DHT22;16382;59.942;30.472;2022-09-09T03:37:14;8.80;99.90
29403;DHT22;16382;59.942;30.472;2022-09-09T03:39:42;8.80;99.90
29403;DHT22;16382;59.942;30.472;2022-09-09T03:42:12;8.90;99.90
29403;DHT22;16382;59.942;30.472;2022-09-09T03:44:44;8.90;99.90
29403;DHT22;16382;59.942;30.472;2022-09-09T03:47:17;8.90;99.90
29403;DHT22;16382;59.942;30.472;2022-09-09T03:49:45;8.90;99.90
29403;DHT22;16382;59.942;30.472;2022-09-09T03:52:14;8.90;99.90
29403;DHT22;16382;59.942;30.472;2022-09-09T03:54:43;9.00;99.90
29403;DHT22;16382;59.942;30.472;2022-09-09T03:57:10;9.00;99.90
29403;DHT22;16382;59.942;30.472;2022-09-09T03:59:39;9.10;99.90
29403;DHT22;16382;59.942;30.472;2022-09-09T04:02:06;9.20;99.90
29403;DHT22;16382;59.942;30.472;2022-09-09T04:04:36;9.30;99.90
29403;DHT22;16382;59.942;30.472;2022-09-09T04:07:16;9.30;99.90
29403;DHT22;16382;59.942;30.472;2022-09-09T04:09:43;9.30;99.90
29403;DHT22;16382;59.942;30.472;2022-09-09T04:12:13;9.30;99.90
29403;DHT22;16382;59.942;30.472;2022-09-09T04:14:41;9.40;99.90
29403;DHT22;16382;59.942;30.472;2022-09-09T04:17:09;9.40;99.90
29403;DHT22;16382;59.942;30.472;2022-09-09T04:19:37;9.40;99.90
29403;DHT22;16382;59.942;30.472;2022-09-09T04:22:04;9.50;99.90
29403;DHT22;16382;59.942;30.472;2022-09-09T04:24:33;9.50;99.90
29403;DHT22;16382;59.942;30.472;2022-09-09T04:27:01;9.60;99.90
29403;DHT22;16382;59.942;30.472;2022-09-09T04:29:30;9.60;99.90
29403;DHT22;16382;59.942;30.472;2022-09-09T04:31:57;9.70;99.90
29403;DHT22;16382;59.942;30.472;2022-09-09T04:34:49;9.70;99.90
29403;DHT22;16382;59.942;30.472;2022-09-09T04:37:20;9.70;99.90
29403;DHT22;16382;59.942;30.472;2022-09-09T04:39:53;9.70;99.90
29403;DHT22;16382;59.942;30.472;2022-09-09T04:42:25;9.70;99.90
29403;DHT22;16382;59.942;30.472;2022-09-09T04:44:56;9.70;99.90
29403;DHT22;16382;59.942;30.472;2022-09-09T04:47:33;9.70;99.90
29403;DHT22;16382;59.942;30.472;2022-09-09T04:50:02;9.80;99.90
29403;DHT22;16382;59.942;30.472;2022-09-09T04:52:31;9.80;99.90
29403;DHT22;16382;59.942;30.472;2022-09-09T04:55:02;9.90;99.90
29403;DHT22;16382;59.942;30.472;2022-09-09T04:57:30;10.00;99.90
29403;DHT22;16382;59.942;30.472;2022-09-09T04:59:58;10.10;99.90
29403;DHT22;16382;59.942;30.472;2022-09-09T05:02:37;10.30;99.90
29403;DHT22;16382;59.942;30.472;2022-09-09T05:05:06;10.40;99.90
29403;DHT22;16382;59.942;30.472;2022-09-09T05:07:33;10.40;99.90
29403;DHT22;16382;59.942;30.472;2022-09-09T05:10:02;10.40;99.90
29403;DHT22;16382;59.942;30.472;2022-09-09T05:12:31;10.40;99.90
29403;DHT22;16382;59.942;30.472;2022-09-09T05:14:59;10.40;99.90
29403;DHT22;16382;59.942;30.472;2022-09-09T05:17:27;10.50;99.90
29403;DHT22;16382;59.942;30.472;2022-09-09T05:19:55;10.60;99.90
29403;DHT22;16382;59.942;30.472;2022-09-09T05:22:23;10.70;99.90
29403;DHT22;16382;59.942;30.472;2022-09-09T05:24:52;10.80;99.90
29403;DHT22;16382;59.942;30.472;2022-09-09T05:27:21;10.80;99.90
29403;DHT22;16382;59.942;30.472;2022-09-09T05:29:49;10.70;99.90
29403;DHT22;16382;59.942;30.472;2022-09-09T05:32:17;10.60;99.90
29403;DHT22;16382;59.942;30.472;2022-09-09T05:34:47;10.40;99.90
29403;DHT22;16382;59.942;30.472;2022-09-09T05:37:16;10.30;99.90
29403;DHT22;16382;59.942;30.472;2022-09-09T05:39:44;10.40;99.90
29403;DHT22;16382;59.942;30.472;2022-09-09T05:42:11;10.40;99.90
29403;DHT22;16382;59.942;30.472;2022-09-09T05:44:40;10.30;99.90
29403;DHT22;16382;59.942;30.472;2022-09-09T05:47:08;10.30;99.90
29403;DHT22;16382;59.942;30.472;2022-09-09T05:49:36;10.20;99.90
29403;DHT22;16382;59.942;30.472;2022-09-09T05:52:07;10.20;99.90
29403;DHT22;16382;59.942;30.472;2022-09-09T05:54:35;10.30;99.90
29403;DHT22;16382;59.942;30.472;2022-09-09T05:57:03;10.30;99.90
29403;DHT22;16382;59.942;30.472;2022-09-09T05:59:31;10.70;99.90
29403;DHT22;16382;59.942;30.472;2022-09-09T06:02:02;11.50;99.90
29403;DHT22;16382;59.942;30.472;2022-09-09T06:04:34;12.60;99.90
29403;DHT22;16382;59.942;30.472;2022-09-09T06:07:02;13.60;99.90
29403;DHT22;16382;59.942;30.472;2022-09-09T06:09:29;14.60;99.90
29403;DHT22;16382;59.942;30.472;2022-09-09T06:11:58;15.50;99.90
29403;DHT22;16382;59.942;30.472;2022-09-09T06:14:30;16.30;99.90
29403;DHT22;16382;59.942;30.472;2022-09-09T06:17:07;17.00;99.90
29403;DHT22;16382;59.942;30.472;2022-09-09T06:19:36;17.60;99.90
29403;DHT22;16382;59.942;30.472;2022-09-09T06:22:03;18.20;99.90
29403;DHT22;16382;59.942;30.472;2022-09-09T06:24:33;18.50;99.90
29403;DHT22;16382;59.942;30.472;2022-09-09T06:27:02;19.00;99.90
29403;DHT22;16382;59.942;30.472;2022-09-09T06:29:34;19.50;99.90
29403;DHT22;16382;59.942;30.472;2022-09-09T06:32:02;19.70;99.90
29403;DHT22;16382;59.942;30.472;2022-09-09T06:34:31;19.90;99.00
29403;DHT22;16382;59.942;30.472;2022-09-09T06:37:00;20.30;97.30
29403;DHT22;16382;59.942;30.472;2022-09-09T06:39:34;20.70;95.30
29403;DHT22;16382;59.942;30.472;2022-09-09T06:42:03;20.90;93.70
29403;DHT22;16382;59.942;30.472;2022-09-09T06:44:46;21.20;92.00
29403;DHT22;16382;59.942;30.472;2022-09-09T06:47:29;21.40;90.50
29403;DHT22;16382;59.942;30.472;2022-09-09T06:49:59;21.60;88.00
29403;DHT22;16382;59.942;30.472;2022-09-09T06:52:32;21.90;86.40
29403;DHT22;16382;59.942;30.472;2022-09-09T06:55:00;22.00;81.70
29403;DHT22;16382;59.942;30.472;2022-09-09T06:57:29;22.20;79.70
29403;DHT22;16382;59.942;30.472;2022-09-09T06:59:57;22.40;77.70
29403;DHT22;16382;59.942;30.472;2022-09-09T07:02:25;22.60;75.00
29403;DHT22;16382;59.942;30.472;2022-09-09T07:04:53;22.80;72.30
29403;DHT22;16382;59.942;30.472;2022-09-09T07:07:21;23.10;71.80
29403;DHT22;16382;59.942;30.472;2022-09-09T07:09:51;23.40;69.50
29403;DHT22;16382;59.942;30.472;2022-09-09T07:12:20;23.30;66.90
29403;DHT22;16382;59.942;30.472;2022-09-09T07:14:54;23.20;66.60
29403;DHT22;16382;59.942;30.472;2022-09-09T07:17:22;22.90;65.60
29403;DHT22;16382;59.942;30.472;2022-09-09T07:19:49;23.00;66.80
29403;DHT22;16382;59.942;30.472;2022-09-09T07:22:17;23.40;65.20
29403;DHT22;16382;59.942;30.472;2022-09-09T07:24:47;23.70;63.40
29403;DHT22;16382;59.942;30.472;2022-09-09T07:27:15;23.60;63.90
29403;DHT22;16382;59.942;30.472;2022-09-09T07:29:43;23.00;65.80
29403;DHT22;16382;59.942;30.472;2022-09-09T07:32:11;23.00;63.60
29403;DHT22;16382;59.942;30.472;2022-09-09T07:34:39;23.10;64.20
29403;DHT22;16382;59.942;30.472;2022-09-09T07:37:06;23.50;62.60
29403;DHT22;16382;59.942;30.472;2022-09-09T07:39:37;23.90;60.60
29403;DHT22;16382;59.942;30.472;2022-09-09T07:42:06;23.90;61.40
29403;DHT22;16382;59.942;30.472;2022-09-09T07:44:37;23.50;61.50
29403;DHT22;16382;59.942;30.472;2022-09-09T07:47:14;22.30;64.10
29403;DHT22;16382;59.942;30.472;2022-09-09T07:49:45;20.90;64.70
29403;DHT22;16382;59.942;30.472;2022-09-09T07:52:19;20.30;66.80
29403;DHT22;16382;59.942;30.472;2022-09-09T07:54:51;20.30;69.50
29403;DHT22;16382;59.942;30.472;2022-09-09T07:57:20;20.40;69.90
29403;DHT22;16382;59.942;30.472;2022-09-09T07:59:49;20.20;68.70
29403;DHT22;16382;59.942;30.472;2022-09-09T08:02:17;19.70;70.60
29403;DHT22;16382;59.942;30.472;2022-09-09T08:04:45;19.10;71.00
29403;DHT22;16382;59.942;30.472;2022-09-09T08:07:14;18.60;72.00
29403;DHT22;16382;59.942;30.472;2022-09-09T08:09:47;18.30;72.10
29403;DHT22;16382;59.942;30.472;2022-09-09T08:12:21;17.90;73.70
29403;DHT22;16382;59.942;30.472;2022-09-09T08:14:51;17.70;75.70
29403;DHT22;16382;59.942;30.472;2022-09-09T08:17:21;17.40;77.80
29403;DHT22;16382;59.942;30.472;2022-09-09T08:19:48;17.20;78.30
29403;DHT22;16382;59.942;30.472;2022-09-09T08:22:21;17.70;79.20
29403;DHT22;16382;59.942;30.472;2022-09-09T08:24:50;18.30;76.20
29403;DHT22;16382;59.942;30.472;2022-09-09T08:27:18;19.70;74.00
29403;DHT22;16382;59.942;30.472;2022-09-09T08:29:47;20.50;64.90
29403;DHT22;16382;59.942;30.472;2022-09-09T08:32:14;20.30;62.80
29403;DHT22;16382;59.942;30.472;2022-09-09T08:34:43;20.30;64.80
29403;DHT22;16382;59.942;30.472;2022-09-09T08:37:15;20.50;65.30
29403;DHT22;16382;59.942;30.472;2022-09-09T08:39:43;21.30;67.10
29403;DHT22;16382;59.942;30.472;2022-09-09T08:42:34;21.70;64.20
29403;DHT22;16382;59.942;30.472;2022-09-09T08:45:22;20.90;64.40
29403;DHT22;16382;59.942;30.472;2022-09-09T08:48:08;20.10;67.30
29403;DHT22;16382;59.942;30.472;2022-09-09T08:50:45;19.40;70.80
29403;DHT22;16382;59.942;30.472;2022-09-09T08:53:23;18.80;71.80
29403;DHT22;16382;59.942;30.472;2022-09-09T08:58:45;18.60;72.60
29403;DHT22;16382;59.942;30.472;2022-09-09T09:01:38;18.60;75.30
29403;DHT22;16382;59.942;30.472;2022-09-09T09:04:28;18.70;74.40
29403;DHT22;16382;59.942;30.472;2022-09-09T09:07:07;18.60;74.40
29403;DHT22;16382;59.942;30.472;2022-09-09T09:09:54;18.50;75.10
29403;DHT22;16382;59.942;30.472;2022-09-09T09:12:28;18.40;75.80
29403;DHT22;16382;59.942;30.472;2022-09-09T09:14:59;18.10;76.70
29403;DHT22;16382;59.942;30.472;2022-09-09T09:17:29;17.80;77.80
29403;DHT22;16382;59.942;30.472;2022-09-09T09:20:10;17.60;78.40
29403;DHT22;16382;59.942;30.472;2022-09-09T09:22:47;17.50;77.00
29403;DHT22;16382;59.942;30.472;2022-09-09T09:25:19;17.50;76.70
29403;DHT22;16382;59.942;30.472;2022-09-09T09:27:56;17.40;79.50
29403;DHT22;16382;59.942;30.472;2022-09-09T09:30:36;17.40;79.80
29403;DHT22;16382;59.942;30.472;2022-09-09T09:33:15;17.30;77.30
29403;DHT22;16382;59.942;30.472;2022-09-09T09:35:45;17.20;78.80
29403;DHT22;16382;59.942;30.472;2022-09-09T09:38:18;17.10;80.40
29403;DHT22;16382;59.942;30.472;2022-09-09T09:40:49;17.00;82.20
29403;DHT22;16382;59.942;30.472;2022-09-09T09:43:26;16.70;81.10
29403;DHT22;16382;59.942;30.472;2022-09-09T09:45:57;16.50;83.00
29403;DHT22;16382;59.942;30.472;2022-09-09T09:48:27;16.20;80.70
29403;DHT22;16382;59.942;30.472;2022-09-09T09:50:57;16.00;80.40
29403;DHT22;16382;59.942;30.472;2022-09-09T09:53:30;15.80;82.30
29403;DHT22;16382;59.942;30.472;2022-09-09T09:56:01;15.70;81.70
29403;DHT22;16382;59.942;30.472;2022-09-09T09:58:32;15.60;82.10
29403;DHT22;16382;59.942;30.472;2022-09-09T10:01:02;15.60;83.50
29403;DHT22;16382;59.942;30.472;2022-09-09T10:03:33;15.60;84.40
29403;DHT22;16382;59.942;30.472;2022-09-09T10:06:06;15.60;85.50
29403;DHT22;16382;59.942;30.472;2022-09-09T10:08:43;15.70;84.80
29403;DHT22;16382;59.942;30.472;2022-09-09T10:11:35;15.80;83.10
29403;DHT22;16382;59.942;30.472;2022-09-09T10:14:16;15.90;83.10
29403;DHT22;16382;59.942;30.472;2022-09-09T10:16:57;16.00;81.90
29403;DHT22;16382;59.942;30.472;2022-09-09T10:19:32;16.00;81.50
29403;DHT22;16382;59.942;30.472;2022-09-09T10:22:19;16.00;80.20
29403;DHT22;16382;59.942;30.472;2022-09-09T10:25:14;16.00;80.30
29403;DHT22;16382;59.942;30.472;2022-09-09T10:28:24;16.10;80.80
29403;DHT22;16382;59.942;30.472;2022-09-09T10:31:06;16.10;79.30
29403;DHT22;16382;59.942;30.472;2022-09-09T10:33:47;16.00;78.20
29403;DHT22;16382;59.942;30.472;2022-09-09T10:36:21;15.90;80.10
29403;DHT22;16382;59.942;30.472;2022-09-09T10:38:57;15.80;80.80
29403;DHT22;16382;59.942;30.472;2022-09-09T10:41:40;16.20;81.50
29403;DHT22;16382;59.942;30.472;2022-09-09T10:44:30;18.30;80.20
29403;DHT22;16382;59.942;30.472;2022-09-09T10:47:26;20.50;72.30
29403;DHT22;16382;59.942;30.472;2022-09-09T10:53:11;21.10;68.30
29403;DHT22;16382;59.942;30.472;2022-09-09T10:55:53;20.70;67.60
29403;DHT22;16382;59.942;30.472;2022-09-09T10:58:30;20.40;67.10
29403;DHT22;16382;59.942;30.472;2022-09-09T11:01:06;20.40;69.00
29403;DHT22;16382;59.942;30.472;2022-09-09T11:03:40;20.40;67.30
29403;DHT22;16382;59.942;30.472;2022-09-09T11:06:13;20.40;66.70
29403;DHT22;16382;59.942;30.472;2022-09-09T11:08:44;20.10;67.60
29403;DHT22;16382;59.942;30.472;2022-09-09T11:11:17;20.40;70.50
29403;DHT22;16382;59.942;30.472;2022-09-09T11:13:49;21.10;68.80
29403;DHT22;16382;59.942;30.472;2022-09-09T11:16:25;21.80;66.60
29403;DHT22;16382;59.942;30.472;2022-09-09T11:18:58;22.40;62.10
29403;DHT22;16382;59.942;30.472;2022-09-09T11:21:32;22.60;59.20
29403;DHT22;16382;59.942;30.472;2022-09-09T11:24:10;22.60;62.10
29403;DHT22;16382;59.942;30.472;2022-09-09T11:26:45;24.00;60.70
29403;DHT22;16382;59.942;30.472;2022-09-09T11:29:34;25.30;56.20
29403;DHT22;16382;59.942;30.472;2022-09-09T11:32:46;26.60;53.50
29403;DHT22;16382;59.942;30.472;2022-09-09T11:35:38;27.80;50.80
29403;DHT22;16382;59.942;30.472;2022-09-09T11:38:25;28.90;49.10
29403;DHT22;16382;59.942;30.472;2022-09-09T11:40:58;29.20;46.70
29403;DHT22;16382;59.942;30.472;2022-09-09T11:43:29;29.30;48.60
29403;DHT22;16382;59.942;30.472;2022-09-09T11:45:59;29.70;46.60
29403;DHT22;16382;59.942;30.472;2022-09-09T11:48:32;29.80;45.70
29403;DHT22;16382;59.942;30.472;2022-09-09T11:51:02;29.30;48.90
29403;DHT22;16382;59.942;30.472;2022-09-09T11:53:33;29.60;47.10
29403;DHT22;16382;59.942;30.472;2022-09-09T11:56:08;30.20;45.20
29403;DHT22;16382;59.942;30.472;2022-09-09T11:58:40;30.70;44.90
29403;DHT22;16382;59.942;30.472;2022-09-09T12:04:26;31.10;41.80
29403;DHT22;16382;59.942;30.472;2022-09-09T12:06:58;28.30;44.70
29403;DHT22;16382;59.942;30.472;2022-09-09T12:09:46;26.90;45.50
29403;DHT22;16382;59.942;30.472;2022-09-09T12:12:30;24.70;48.10
29403;DHT22;16382;59.942;30.472;2022-09-09T12:15:03;22.70;52.30
29403;DHT22;16382;59.942;30.472;2022-09-09T12:17:49;21.50;53.90
29403;DHT22;16382;59.942;30.472;2022-09-09T12:20:20;20.40;56.10
29403;DHT22;16382;59.942;30.472;2022-09-09T12:23:19;19.80;57.40
29403;DHT22;16382;59.942;30.472;2022-09-09T12:25:59;19.50;58.80
29403;DHT22;16382;59.942;30.472;2022-09-09T12:28:42;18.90;59.10
29403;DHT22;16382;59.942;30.472;2022-09-09T12:31:20;18.50;60.60
29403;DHT22;16382;59.942;30.472;2022-09-09T12:33:52;18.10;63.00
29403;DHT22;16382;59.942;30.472;2022-09-09T12:36:23;17.90;64.90
29403;DHT22;16382;59.942;30.472;2022-09-09T12:38:56;17.60;67.10
29403;DHT22;16382;59.942;30.472;2022-09-09T12:41:28;17.50;68.50
29403;DHT22;16382;59.942;30.472;2022-09-09T12:46:38;17.30;70.20
29403;DHT22;16382;59.942;30.472;2022-09-09T12:49:26;17.40;70.10
29403;DHT22;16382;59.942;30.472;2022-09-09T12:52:02;17.70;71.60
29403;DHT22;16382;59.942;30.472;2022-09-09T12:54:32;18.00;69.40
29403;DHT22;16382;59.942;30.472;2022-09-09T12:57:00;18.40;66.10
29403;DHT22;16382;59.942;30.472;2022-09-09T12:59:37;19.40;67.30
29403;DHT22;16382;59.942;30.472;2022-09-09T13:02:16;20.30;63.00
29403;DHT22;16382;59.942;30.472;2022-09-09T13:04:50;20.10;60.00
29403;DHT22;16382;59.942;30.472;2022-09-09T13:07:20;19.30;61.20
29403;DHT22;16382;59.942;30.472;2022-09-09T13:09:48;18.70;65.60
29403;DHT22;16382;59.942;30.472;2022-09-09T13:12:19;18.30;68.10
29403;DHT22;16382;59.942;30.472;2022-09-09T13:14:52;18.00;68.60
29403;DHT22;16382;59.942;30.472;2022-09-09T13:17:23;17.70;69.10
29403;DHT22;16382;59.942;30.472;2022-09-09T13:19:53;17.40;68.80
29403;DHT22;16382;59.942;30.472;2022-09-09T13:22:26;17.20;68.60
29403;DHT22;16382;59.942;30.472;2022-09-09T13:25:00;17.10;69.60
29403;DHT22;16382;59.942;30.472;2022-09-09T13:27:31;17.00;70.20
29403;DHT22;16382;59.942;30.472;2022-09-09T13:33:03;16.80;71.60
29403;DHT22;16382;59.942;30.472;2022-09-09T13:35:32;16.70;71.80
29403;DHT22;16382;59.942;30.472;2022-09-09T13:38:07;16.50;73.10
29403;DHT22;16382;59.942;30.472;2022-09-09T13:40:36;16.40;73.80
29403;DHT22;16382;59.942;30.472;2022-09-09T13:43:05;16.30;73.20
29403;DHT22;16382;59.942;30.472;2022-09-09T13:45:41;16.20;74.30
29403;DHT22;16382;59.942;30.472;2022-09-09T13:48:20;16.10;74.90
29403;DHT22;16382;59.942;30.472;2022-09-09T13:50:55;16.00;76.20
29403;DHT22;16382;59.942;30.472;2022-09-09T13:53:24;15.90;76.30
29403;DHT22;16382;59.942;30.472;2022-09-09T13:56:15;15.80;76.60
29403;DHT22;16382;59.942;30.472;2022-09-09T13:58:44;15.70;75.30
29403;DHT22;16382;59.942;30.472;2022-09-09T14:04:26;15.70;76.90
29403;DHT22;16382;59.942;30.472;2022-09-09T14:06:54;15.60;77.80
29403;DHT22;16382;59.942;30.472;2022-09-09T14:09:22;15.50;76.90
29403;DHT22;16382;59.942;30.472;2022-09-09T14:11:50;15.50;77.30
29403;DHT22;16382;59.942;30.472;2022-09-09T14:14:17;15.50;76.70
29403;DHT22;16382;59.942;30.472;2022-09-09T14:16:45;15.40;77.30
29403;DHT22;16382;59.942;30.472;2022-09-09T14:19:14;15.40;78.30
29403;DHT22;16382;59.942;30.472;2022-09-09T14:21:41;15.40;77.30
29403;DHT22;16382;59.942;30.472;2022-09-09T14:24:09;15.40;77.90
29403;DHT22;16382;59.942;30.472;2022-09-09T14:26:38;15.40;79.40
29403;DHT22;16382;59.942;30.472;2022-09-09T14:29:05;15.40;79.20
29403;DHT22;16382;59.942;30.472;2022-09-09T14:31:33;15.60;79.00
29403;DHT22;16382;59.942;30.472;2022-09-09T14:34:00;16.80;78.80
29403;DHT22;16382;59.942;30.472;2022-09-09T14:36:29;19.10;73.10
29403;DHT22;16382;59.942;30.472;2022-09-09T14:38:56;21.30;66.10
29403;DHT22;16382;59.942;30.472;2022-09-09T14:41:24;22.80;60.00
29403;DHT22;16382;59.942;30.472;2022-09-09T14:43:51;23.80;57.10
29403;DHT22;16382;59.942;30.472;2022-09-09T14:46:20;24.40;55.90
29403;DHT22;16382;59.942;30.472;2022-09-09T14:48:48;23.60;56.50
29403;DHT22;16382;59.942;30.472;2022-09-09T14:51:17;22.30;56.60
29403;DHT22;16382;59.942;30.472;2022-09-09T14:53:51;21.00;58.60
29403;DHT22;16382;59.942;30.472;2022-09-09T14:56:21;20.20;61.80
29403;DHT22;16382;59.942;30.472;2022-09-09T14:58:50;19.40;64.10
29403;DHT22;16382;59.942;30.472;2022-09-09T15:01:19;18.70;66.20
29403;DHT22;16382;59.942;30.472;2022-09-09T15:03:52;18.20;67.80
29403;DHT22;16382;59.942;30.472;2022-09-09T15:06:21;17.70;69.40
29403;DHT22;16382;59.942;30.472;2022-09-09T15:08:52;17.30;71.40
29403;DHT22;16382;59.942;30.472;2022-09-09T15:11:20;17.00;71.00
29403;DHT22;16382;59.942;30.472;2022-09-09T15:13:51;16.70;71.70
29403;DHT22;16382;59.942;30.472;2022-09-09T15:16:21;16.40;72.70
29403;DHT22;16382;59.942;30.472;2022-09-09T15:18:52;16.10;75.20
29403;DHT22;16382;59.942;30.472;2022-09-09T15:21:22;15.80;76.60
29403;DHT22;16382;59.942;30.472;2022-09-09T15:23:52;15.60;78.80
29403;DHT22;16382;59.942;30.472;2022-09-09T15:26:19;15.30;79.00
29403;DHT22;16382;59.942;30.472;2022-09-09T15:28:48;15.20;79.60
29403;DHT22;16382;59.942;30.472;2022-09-09T15:31:22;15.00;80.10
29403;DHT22;16382;59.942;30.472;2022-09-09T15:33:54;14.80;80.50
29403;DHT22;16382;59.942;30.472;2022-09-09T15:36:27;14.70;81.50
29403;DHT22;16382;59.942;30.472;2022-09-09T15:39:06;14.50;83.60
29403;DHT22;16382;59.942;30.472;2022-09-09T15:41:38;14.40;85.40
29403;DHT22;16382;59.942;30.472;2022-09-09T15:44:06;14.30;86.30
29403;DHT22;16382;59.942;30.472;2022-09-09T15:46:37;14.10;86.50
29403;DHT22;16382;59.942;30.472;2022-09-09T15:49:09;14.00;88.10
29403;DHT22;16382;59.942;30.472;2022-09-09T15:51:42;13.80;89.10
29403;DHT22;16382;59.942;30.472;2022-09-09T15:54:14;13.70;90.10
29403;DHT22;16382;59.942;30.472;2022-09-09T15:56:44;13.60;90.70
29403;DHT22;16382;59.942;30.472;2022-09-09T15:59:14;13.50;90.90
29403;DHT22;16382;59.942;30.472;2022-09-09T16:01:42;13.30;91.80
29403;DHT22;16382;59.942;30.472;2022-09-09T16:04:10;13.20;92.60
29403;DHT22;16382;59.942;30.472;2022-09-09T16:06:38;13.10;93.10
29403;DHT22;16382;59.942;30.472;2022-09-09T16:09:07;13.00;93.80
29403;DHT22;16382;59.942;30.472;2022-09-09T16:11:38;12.90;94.30
29403;DHT22;16382;59.942;30.472;2022-09-09T16:14:06;12.80;94.90
29403;DHT22;16382;59.942;30.472;2022-09-09T16:16:35;12.70;95.70